Time;durP1;ratioP1;P1;durP2;ratioP2;P2;SDS_P1;SDS_P2;PMS_P1;PMS_P2;Temp;Humidity;BMP_temperature;BMP_pressure;BME280_temperature;BME280_humidity;BME280_pressure;Samples;Min_cycle;Max_cycle;Signal;HPM_P1;HPM_P2
2023/10/12 11:33:35;;;;;;;22.33;10.93;;;;;;;;;;5247236;22;20051;-88
2023/10/12 11:36:03;;;;;;;18.35;9.27;;;;;;;;;;5052252;28;20044;-88
2023/10/12 11:38:29;;;;;;;16.50;10.50;;;;;;;;;;5052475;28;20024;-88
2023/10/12 11:40:58;;;;;;;23.42;10.90;;;;;;;;;;5053734;28;20037;-88
2023/10/12 11:43:43;;;;;;;;;;;;;;;;;;5053861;28;20024;-84
2023/10/12 16:09:46;;;;;;;35.05;20.40;;;;;;;;;;5374793;22;20405;-85
2023/10/12 20:07:21;;;;;;;19.55;15.10;;;;;;;;;;5787816;22;20094;-86
2023/10/12 20:09:46;;;;;;;23.30;15.43;;;;;;;;;;5040329;28;20037;-85
2023/10/12 20:12:12;;;;;;;24.75;15.15;;;;;;;;;;5049584;28;20031;-86
2023/10/12 20:14:38;;;;;;;28.63;16.63;;;;;;;;;;5031969;28;20113;-84
2023/10/12 20:17:10;;;;;;;25.38;16.27;;;;;;;;;;5033080;28;20106;-87
2023/10/12 20:19:36;;;;;;;28.65;15.80;;;;;;;;;;5033589;28;20076;-87
2023/10/12 20:22:02;;;;;;;23.35;16.88;;;;;;;;;;5033161;28;20067;-85
2023/10/12 20:24:32;;;;;;;28.92;18.20;;;;;;;;;;5033566;28;20064;-86
2023/10/12 20:27:00;;;;;;;26.98;17.83;;;;;;;;;;5052127;28;20043;-86
2023/10/12 20:29:27;;;;;;;31.67;18.67;;;;;;;;;;5053089;28;20029;-87
2023/10/12 20:31:52;;;;;;;28.42;18.05;;;;;;;;;;5053414;28;20037;-86
2023/10/12 20:34:19;;;;;;;26.58;17.00;;;;;;;;;;5053611;28;20032;-87
2023/10/12 20:36:45;;;;;;;25.65;16.80;;;;;;;;;;5053826;28;20033;-87
2023/10/12 20:39:11;;;;;;;26.95;17.88;;;;;;;;;;5053802;28;20025;-88
2023/10/12 20:41:36;;;;;;;27.50;18.30;;;;;;;;;;5051898;28;20060;-87
2023/10/12 20:44:03;;;;;;;25.10;16.08;;;;;;;;;;5053394;28;20075;-90
2023/10/12 20:46:29;;;;;;;27.35;17.48;;;;;;;;;;5053225;28;20048;-86
2023/10/12 20:49:00;;;;;;;26.75;16.40;;;;;;;;;;5052947;28;20028;-87
2023/10/12 20:51:26;;;;;;;22.33;15.52;;;;;;;;;;5051345;28;20471;-88
2023/10/12 20:53:53;;;;;;;24.17;16.15;;;;;;;;;;5052889;28;20033;-87
2023/10/12 20:56:28;;;;;;;24.55;16.25;;;;;;;;;;5052713;28;20026;-86
2023/10/12 20:59:12;;;;;;;26.13;16.33;;;;;;;;;;5052507;28;20371;-85
2023/10/12 21:01:45;;;;;;;27.55;17.35;;;;;;;;;;5051645;28;20494;-88
2023/10/12 21:04:20;;;;;;;26.33;17.08;;;;;;;;;;5053189;28;20033;-88
2023/10/12 21:06:48;;;;;;;25.27;17.65;;;;;;;;;;5052830;28;20429;-87
2023/10/12 21:09:15;;;;;;;26.77;17.60;;;;;;;;;;5055383;28;20083;-88
2023/10/12 21:11:56;;;;;;;25.83;15.75;;;;;;;;;;5056425;28;20032;-88
2023/10/12 21:14:34;;;;;;;23.50;16.17;;;;;;;;;;5056618;28;20021;-89
2023/10/12 21:17:04;;;;;;;23.55;16.02;;;;;;;;;;5056308;28;20021;-88
2023/10/12 21:19:53;;;;;;;26.27;15.90;;;;;;;;;;5056614;28;20029;-88
2023/10/12 21:22:22;;;;;;;22.17;14.55;;;;;;;;;;5056386;28;20046;-88
2023/10/12 21:24:54;;;;;;;22.20;15.60;;;;;;;;;;5056362;28;20375;-88
2023/10/12 21:27:35;;;;;;;23.77;16.58;;;;;;;;;;5054795;28;20266;-87
2023/10/12 21:30:04;;;;;;;25.20;17.00;;;;;;;;;;5056481;28;20033;-87
2023/10/12 21:32:29;;;;;;;26.70;18.37;;;;;;;;;;5056305;28;20036;-86
2023/10/12 21:34:56;;;;;;;32.22;19.38;;;;;;;;;;5054517;28;20266;-87
2023/10/12 21:37:22;;;;;;;32.70;19.20;;;;;;;;;;5055898;28;20052;-88
2023/10/12 21:39:50;;;;;;;28.08;18.35;;;;;;;;;;5055885;28;20052;-87
2023/10/12 21:42:18;;;;;;;27.98;18.15;;;;;;;;;;5054503;28;20388;-88
2023/10/12 21:44:44;;;;;;;26.55;18.13;;;;;;;;;;5055872;28;20033;-86
2023/10/12 21:47:10;;;;;;;31.90;20.55;;;;;;;;;;5056129;28;20108;-88
2023/10/12 21:49:37;;;;;;;27.55;18.45;;;;;;;;;;5054681;28;20031;-88
2023/10/12 21:52:05;;;;;;;27.55;18.00;;;;;;;;;;5055690;28;20083;-86
2023/10/12 21:54:31;;;;;;;23.77;16.85;;;;;;;;;;5054258;28;20171;-88
2023/10/12 21:56:57;;;;;;;26.75;18.38;;;;;;;;;;5055632;28;20467;-88
2023/10/12 21:59:23;;;;;;;25.70;18.50;;;;;;;;;;5054670;28;20071;-88
2023/10/12 22:01:50;;;;;;;30.13;19.02;;;;;;;;;;5055354;28;20432;-88
2023/10/12 22:04:30;;;;;;;31.98;19.02;;;;;;;;;;5055432;28;20116;-88
2023/10/12 22:06:56;;;;;;;31.63;20.38;;;;;;;;;;5053935;28;20065;-88
2023/10/12 22:09:43;;;;;;;32.00;20.02;;;;;;;;;;5055434;28;20530;-87
2023/10/12 22:12:09;;;;;;;26.70;19.00;;;;;;;;;;5055200;28;20116;-87
2023/10/12 22:15:14;;;;;;;24.25;16.13;;;;;;;;;;5055228;28;20031;-87
2023/10/12 22:17:27;;;;;;;23.40;16.45;;;;;;;;;;5052134;28;20036;-88
2023/10/12 22:19:54;;;;;;;27.58;16.45;;;;;;;;;;5053830;28;20033;-87
2023/10/12 22:22:29;;;;;;;24.23;15.73;;;;;;;;;;5055360;28;20036;-88
2023/10/12 22:24:55;;;;;;;27.60;14.52;;;;;;;;;;5055086;28;20032;-88
2023/10/12 22:27:27;;;;;;;23.90;15.23;;;;;;;;;;5054893;28;20025;-87
2023/10/12 22:29:55;;;;;;;23.25;14.82;;;;;;;;;;5053711;28;20434;-88
2023/10/12 22:32:21;;;;;;;24.08;15.60;;;;;;;;;;5053888;28;20176;-88
2023/10/12 22:34:48;;;;;;;21.20;14.38;;;;;;;;;;5054844;28;20013;-88
2023/10/12 22:37:16;;;;;;;24.50;14.95;;;;;;;;;;5054783;28;20024;-88
2023/10/12 22:39:41;;;;;;;23.42;15.93;;;;;;;;;;5054628;28;20485;-88
2023/10/12 22:42:07;;;;;;;24.67;15.73;;;;;;;;;;5053491;28;20024;-88
2023/10/12 22:44:34;;;;;;;27.05;16.77;;;;;;;;;;5053459;28;20029;-87
2023/10/12 22:47:02;;;;;;;26.60;16.25;;;;;;;;;;5053244;28;20083;-88
2023/10/12 22:49:32;;;;;;;23.65;16.13;;;;;;;;;;5054733;28;20020;-88
2023/10/12 22:51:58;;;;;;;26.23;15.77;;;;;;;;;;5054747;28;20021;-88
2023/10/12 22:54:31;;;;;;;27.58;17.55;;;;;;;;;;5053230;28;20029;-87
2023/10/12 22:56:56;;;;;;;26.95;16.92;;;;;;;;;;5054406;28;20079;-87
2023/10/12 22:59:22;;;;;;;30.20;18.25;;;;;;;;;;5054592;28;20029;-88
2023/10/12 23:01:47;;;;;;;30.05;18.05;;;;;;;;;;5054381;28;20029;-88
2023/10/12 23:04:13;;;;;;;32.53;18.67;;;;;;;;;;5053280;28;20036;-88
2023/10/12 23:06:38;;;;;;;27.35;17.63;;;;;;;;;;5052622;28;20037;-88
2023/10/12 23:09:04;;;;;;;23.45;15.63;;;;;;;;;;5054514;28;20523;-88
2023/10/12 23:11:37;;;;;;;26.20;16.08;;;;;;;;;;5054373;28;20028;-87
2023/10/12 23:14:09;;;;;;;25.42;16.73;;;;;;;;;;5052813;28;20025;-86
2023/10/12 23:16:36;;;;;;;23.27;15.25;;;;;;;;;;5053990;28;20031;-85
2023/10/12 23:19:10;;;;;;;25.85;17.20;;;;;;;;;;5054415;28;20053;-87
2023/10/12 23:21:44;;;;;;;24.58;16.88;;;;;;;;;;5054300;28;20079;-85
